createdAt,value
2017-04-08T00:00:05.621Z,0
2017-04-08T00:01:05.626Z,0
2017-04-08T00:02:05.855Z,0
2017-04-08T00:03:05.600Z,0
2017-04-08T00:04:05.592Z,0
2017-04-08T00:05:05.591Z,0
2017-04-08T00:06:05.597Z,0
2017-04-08T00:07:05.816Z,0
2017-04-08T00:08:05.565Z,0
2017-04-08T00:09:05.551Z,0
2017-04-08T00:10:05.248Z,0
2017-04-08T00:11:05.554Z,0
2017-04-08T00:12:05.562Z,0
2017-04-08T00:13:05.537Z,0
2017-04-08T00:14:05.516Z,0
2017-04-08T00:15:05.206Z,0
2017-04-08T00:16:05.513Z,0
2017-04-08T00:17:05.743Z,0
2017-04-08T00:18:05.533Z,0
2017-04-08T00:19:05.496Z,0
2017-04-08T00:20:04.862Z,0
2017-04-08T00:21:05.157Z,0
2017-04-08T00:22:05.519Z,0
2017-04-08T00:23:05.450Z,0
2017-04-08T00:24:05.449Z,0
2017-04-08T00:25:05.128Z,0
2017-04-08T00:26:05.438Z,0
2017-04-08T00:27:05.667Z,0
2017-04-08T00:28:05.417Z,0
2017-04-08T00:29:05.401Z,0
2017-04-08T00:30:05.397Z,0
2017-04-08T00:31:05.081Z,0
2017-04-08T00:32:05.326Z,0
2017-04-08T00:33:05.372Z,0
2017-04-08T00:34:04.761Z,0
2017-04-08T00:35:05.356Z,0
2017-04-08T00:36:05.344Z,0
2017-04-08T00:37:05.591Z,0
2017-04-08T00:38:05.333Z,0
2017-04-08T00:39:05.024Z,0
2017-04-08T00:40:05.323Z,0
2017-04-08T00:41:05.311Z,0
2017-04-08T00:42:05.247Z,0
2017-04-08T00:43:05.294Z,0
2017-04-08T00:44:05.289Z,0
2017-04-08T00:45:05.283Z,0
2017-04-08T00:46:05.268Z,0
2017-04-08T00:47:05.259Z,0
2017-04-08T00:48:05.255Z,0
2017-04-08T00:49:05.245Z,0
2017-04-08T00:50:05.240Z,0
2017-04-08T00:51:05.232Z,0
2017-04-08T00:52:05.474Z,0
2017-04-08T00:53:05.215Z,0
2017-04-08T00:54:05.213Z,0
2017-04-08T00:55:05.201Z,0
2017-04-08T00:56:05.192Z,0
2017-04-08T00:57:05.438Z,0
2017-04-08T00:58:05.178Z,0
2017-04-08T00:59:05.172Z,0
2017-04-08T01:00:05.167Z,0
2017-04-08T01:01:04.850Z,0
2017-04-08T01:02:05.454Z,0
2017-04-08T01:03:05.139Z,0
2017-04-08T01:04:05.130Z,0
2017-04-08T01:05:04.818Z,0
2017-04-08T01:06:05.119Z,0
2017-04-08T01:07:05.356Z,0
2017-04-08T01:08:05.102Z,0
2017-04-08T01:09:05.090Z,0
2017-04-08T01:10:05.084Z,0
2017-04-08T01:11:05.110Z,0
2017-04-08T01:12:05.314Z,0
2017-04-08T01:13:05.060Z,0
2017-04-08T01:14:05.049Z,0
2017-04-08T01:15:05.046Z,0
2017-04-08T01:16:04.739Z,0
2017-04-08T01:17:05.023Z,0
2017-04-08T01:18:04.716Z,0
2017-04-08T01:19:04.706Z,0
2017-04-08T01:20:05.004Z,0
2017-04-08T01:21:04.692Z,0
2017-04-08T01:22:05.288Z,0
2017-04-08T01:23:05.003Z,0
2017-04-08T01:24:04.973Z,0
2017-04-08T01:25:04.965Z,0
2017-04-08T01:26:04.982Z,0
2017-04-08T01:27:05.198Z,0
2017-04-08T01:28:04.638Z,0
2017-04-08T01:29:04.634Z,0
2017-04-08T01:30:04.923Z,0
2017-04-08T01:31:04.918Z,0
2017-04-08T01:32:05.212Z,0
2017-04-08T01:33:04.901Z,0
2017-04-08T01:34:04.900Z,0
2017-04-08T01:35:04.886Z,0
2017-04-08T01:36:04.882Z,0
2017-04-08T01:37:05.123Z,0
2017-04-08T01:38:04.861Z,0
2017-04-08T01:39:04.857Z,0
2017-04-08T01:40:04.850Z,0
2017-04-08T01:41:04.537Z,0
2017-04-08T01:42:04.831Z,0
2017-04-08T01:43:04.823Z,0
2017-04-08T01:44:04.817Z,0
2017-04-08T01:45:04.809Z,0
2017-04-08T01:46:04.805Z,0
2017-04-08T01:47:05.093Z,0
2017-04-08T01:48:04.784Z,0
2017-04-08T01:49:04.778Z,0
2017-04-08T01:50:04.771Z,0
2017-04-08T01:51:04.761Z,0
2017-04-08T01:52:05.004Z,0
2017-04-08T01:53:04.751Z,0
2017-04-08T01:54:04.742Z,0
2017-04-08T01:55:04.735Z,0
2017-04-08T01:56:04.724Z,0
2017-04-08T01:57:04.967Z,0
2017-04-08T01:58:04.709Z,0
2017-04-08T01:59:04.401Z,0
2017-04-08T02:00:04.691Z,0
2017-04-08T02:01:04.683Z,0
2017-04-08T02:02:04.976Z,0
2017-04-08T02:03:04.671Z,0
2017-04-08T02:04:04.661Z,0
2017-04-08T02:05:04.657Z,0
2017-04-08T02:06:04.646Z,0
2017-04-08T02:07:04.890Z,0
2017-04-08T02:08:04.627Z,0
2017-04-08T02:09:04.626Z,0
2017-04-08T02:10:04.618Z,0
2017-04-08T02:11:04.642Z,0
2017-04-08T02:12:04.948Z,0
2017-04-08T02:13:04.594Z,0
2017-04-08T02:14:04.583Z,0
2017-04-08T02:15:04.577Z,0
2017-04-08T02:16:04.565Z,0
2017-04-08T02:17:04.813Z,0
2017-04-08T02:18:04.248Z,0
2017-04-08T02:19:04.545Z,0
2017-04-08T02:20:04.544Z,0
2017-04-08T02:21:04.531Z,0
2017-04-08T02:22:04.475Z,0
2017-04-08T02:23:04.516Z,0
2017-04-08T02:24:04.507Z,0
2017-04-08T02:25:04.504Z,0
2017-04-08T02:26:04.493Z,0
2017-04-08T02:27:04.737Z,0
2017-04-08T02:28:04.481Z,0
2017-04-08T02:29:04.473Z,0
2017-04-08T02:30:04.459Z,0
2017-04-08T02:31:04.456Z,0
2017-04-08T02:32:04.461Z,0
2017-04-08T02:33:04.434Z,0
2017-04-08T02:34:04.429Z,0
2017-04-08T02:35:04.418Z,0
2017-04-08T02:36:04.413Z,0
2017-04-08T02:37:04.709Z,0
2017-04-08T02:38:04.396Z,0
2017-04-08T02:39:04.089Z,0
2017-04-08T02:40:04.382Z,0
2017-04-08T02:41:04.376Z,0
2017-04-08T02:42:04.664Z,0
2017-04-08T02:43:04.056Z,0
2017-04-08T02:44:04.352Z,0
2017-04-08T02:45:04.342Z,0
2017-04-08T02:46:04.334Z,0
2017-04-08T02:47:04.674Z,0
2017-04-08T02:48:04.319Z,0
2017-04-08T02:49:04.309Z,0
2017-04-08T02:50:04.300Z,0
2017-04-08T02:51:04.294Z,0
2017-04-08T02:52:04.537Z,0
2017-04-08T02:53:04.275Z,0
2017-04-08T02:54:04.271Z,0
2017-04-08T02:55:04.260Z,0
2017-04-08T02:56:03.953Z,0
2017-04-08T02:57:04.544Z,0
2017-04-08T02:58:04.242Z,0
2017-04-08T02:59:04.233Z,0
2017-04-08T03:00:04.221Z,0
2017-04-08T03:01:04.213Z,0
2017-04-08T03:02:04.509Z,0
2017-04-08T03:03:04.199Z,0
2017-04-08T03:04:04.192Z,0
2017-04-08T03:05:04.183Z,0
2017-04-08T03:06:04.176Z,0
2017-04-08T03:07:04.459Z,0
2017-04-08T03:08:04.162Z,0
2017-04-08T03:09:04.153Z,0
2017-04-08T03:10:04.147Z,0
2017-04-08T03:11:04.135Z,0
2017-04-08T03:12:04.380Z,0
2017-04-08T03:13:04.121Z,0
2017-04-08T03:14:03.810Z,0
2017-04-08T03:15:04.110Z,0
2017-04-08T03:16:04.100Z,0
2017-04-08T03:17:04.118Z,0
2017-04-08T03:18:04.082Z,0
2017-04-08T03:19:04.073Z,0
2017-04-08T03:20:04.071Z,0
2017-04-08T03:21:04.060Z,0
2017-04-08T03:22:03.746Z,0
2017-04-08T03:23:04.345Z,0
2017-04-08T03:24:04.036Z,0
2017-04-08T03:25:04.027Z,0
2017-04-08T03:26:04.019Z,0
2017-04-08T03:27:04.011Z,0
2017-04-08T03:28:04.254Z,0
2017-04-08T03:29:04.007Z,0
2017-04-08T03:30:03.985Z,0
2017-04-08T03:31:03.985Z,0
2017-04-08T03:32:03.979Z,0
2017-04-08T03:33:04.273Z,0
2017-04-08T03:34:03.956Z,0
2017-04-08T03:35:03.946Z,0
2017-04-08T03:36:03.939Z,0
2017-04-08T03:37:03.929Z,0
2017-04-08T03:38:04.172Z,0
2017-04-08T03:39:03.913Z,0
2017-04-08T03:40:03.905Z,0
2017-04-08T03:41:03.941Z,0
2017-04-08T03:42:03.888Z,0
2017-04-08T03:43:04.134Z,0
2017-04-08T03:44:03.877Z,0
2017-04-08T03:45:03.563Z,0
2017-04-08T03:46:03.862Z,0
2017-04-08T03:47:03.848Z,0
2017-04-08T03:48:04.146Z,0
2017-04-08T03:49:03.831Z,0
2017-04-08T03:50:03.829Z,0
2017-04-08T03:51:03.821Z,0
2017-04-08T03:52:03.807Z,0
2017-04-08T03:53:04.105Z,0
2017-04-08T03:54:03.798Z,0
2017-04-08T03:55:03.786Z,0
2017-04-08T03:56:03.782Z,0
2017-04-08T03:57:03.768Z,4
2017-04-08T03:58:04.012Z,4
2017-04-08T03:59:03.752Z,4
2017-04-08T04:00:03.746Z,0
2017-04-08T04:01:03.739Z,4
2017-04-08T04:02:03.728Z,8
2017-04-08T04:03:04.021Z,8
2017-04-08T04:04:03.712Z,8
2017-04-08T04:05:03.705Z,8
2017-04-08T04:06:03.694Z,8
2017-04-08T04:07:03.685Z,8
2017-04-08T04:08:03.935Z,12
2017-04-08T04:09:03.675Z,12
2017-04-08T04:10:03.658Z,12
2017-04-08T04:11:03.658Z,20
2017-04-08T04:12:03.645Z,28
2017-04-08T04:13:03.935Z,28
2017-04-08T04:14:03.659Z,32
2017-04-08T04:15:03.639Z,36
2017-04-08T04:16:03.614Z,40
2017-04-08T04:17:03.604Z,44
2017-04-08T04:18:03.845Z,48
2017-04-08T04:19:03.590Z,52
2017-04-08T04:20:03.586Z,60
2017-04-08T04:21:03.571Z,68
2017-04-08T04:22:03.565Z,68
2017-04-08T04:23:03.866Z,80
2017-04-08T04:24:03.244Z,96
2017-04-08T04:25:03.545Z,116
2017-04-08T04:26:03.530Z,132
2017-04-08T04:27:03.523Z,156
2017-04-08T04:28:03.817Z,208
2017-04-08T04:29:03.220Z,244
2017-04-08T04:30:03.502Z,252
2017-04-08T04:31:03.490Z,256
2017-04-08T04:32:03.483Z,280
2017-04-08T04:33:03.724Z,292
2017-04-08T04:34:03.465Z,284
2017-04-08T04:35:03.462Z,320
2017-04-08T04:36:03.453Z,356
2017-04-08T04:37:03.438Z,392
2017-04-08T04:38:03.688Z,396
2017-04-08T04:39:03.136Z,392
2017-04-08T04:40:03.422Z,436
2017-04-08T04:41:03.409Z,500
2017-04-08T04:42:03.408Z,560
2017-04-08T04:43:03.091Z,572
2017-04-08T04:44:03.384Z,716
2017-04-08T04:45:03.378Z,804
2017-04-08T04:46:03.387Z,860
2017-04-08T04:47:03.363Z,896
2017-04-08T04:48:03.356Z,872
2017-04-08T04:49:03.053Z,908
2017-04-08T04:50:03.034Z,980
2017-04-08T04:51:03.027Z,1036
2017-04-08T04:52:03.034Z,1084
2017-04-08T04:53:03.315Z,1136
2017-04-08T04:54:03.006Z,1216
2017-04-08T04:55:03.300Z,1324
2017-04-08T04:56:02.986Z,1480
2017-04-08T04:57:03.282Z,1632
2017-04-08T04:58:03.274Z,1740
2017-04-08T04:59:03.263Z,1880
2017-04-08T05:00:03.255Z,1840
2017-04-08T05:01:03.247Z,1872
2017-04-08T05:02:03.240Z,2012
2017-04-08T05:03:03.235Z,1972
2017-04-08T05:04:02.928Z,1832
2017-04-08T05:05:03.228Z,1768
2017-04-08T05:06:02.904Z,1892
2017-04-08T05:07:03.220Z,1920
2017-04-08T05:08:03.197Z,1928
2017-04-08T05:09:03.188Z,2232
2017-04-08T05:10:03.175Z,2400
2017-04-08T05:11:03.167Z,2720
2017-04-08T05:12:03.164Z,2908
2017-04-08T05:13:03.151Z,2568
2017-04-08T05:14:03.142Z,2372
2017-04-08T05:15:03.145Z,2568
2017-04-08T05:16:03.128Z,3040
2017-04-08T05:17:03.131Z,3268
2017-04-08T05:18:03.128Z,3244
2017-04-08T05:19:02.800Z,3032
2017-04-08T05:20:03.096Z,2800
2017-04-08T05:21:02.787Z,2800
2017-04-08T05:22:02.477Z,2732
2017-04-08T05:23:02.472Z,2668
2017-04-08T05:24:03.318Z,2768
2017-04-08T05:25:03.061Z,2760
2017-04-08T05:26:03.061Z,2636
2017-04-08T05:27:03.066Z,2468
2017-04-08T05:28:02.738Z,2440
2017-04-08T05:29:03.091Z,2592
2017-04-08T05:30:03.017Z,2828
2017-04-08T05:31:02.712Z,3228
2017-04-08T05:32:03.007Z,3340
2017-04-08T05:33:02.999Z,3024
2017-04-08T05:34:03.270Z,3256
2017-04-08T05:35:02.981Z,4148
2017-04-08T05:36:02.667Z,4444
2017-04-08T05:37:02.967Z,4224
2017-04-08T05:38:02.957Z,4068
2017-04-08T05:39:03.202Z,4632
2017-04-08T05:40:02.955Z,4924
2017-04-08T05:41:02.933Z,4804
2017-04-08T05:42:02.930Z,4848
2017-04-08T05:43:02.922Z,5116
2017-04-08T05:44:03.227Z,5296
2017-04-08T05:45:02.920Z,5428
2017-04-08T05:46:02.897Z,5784
2017-04-08T05:47:02.894Z,5536
2017-04-08T05:48:02.883Z,4700
2017-04-08T05:49:02.823Z,4492
2017-04-08T05:50:02.866Z,5036
2017-04-08T05:51:02.567Z,5844
2017-04-08T05:52:02.851Z,6424
2017-04-08T05:53:02.855Z,5972
2017-04-08T05:54:03.220Z,5316
2017-04-08T05:55:02.838Z,5216
2017-04-08T05:56:02.522Z,5812
2017-04-08T05:57:02.817Z,6096
2017-04-08T05:58:02.807Z,6144
2017-04-08T05:59:03.073Z,6048
2017-04-08T06:00:02.793Z,5708
2017-04-08T06:01:02.788Z,5284
2017-04-08T06:02:02.786Z,4880
2017-04-08T06:03:02.773Z,5128
2017-04-08T06:04:03.069Z,6168
2017-04-08T06:05:02.760Z,7188
2017-04-08T06:06:02.757Z,6836
2017-04-08T06:07:02.745Z,5684
2017-04-08T06:08:02.739Z,5300
2017-04-08T06:09:02.990Z,5508
2017-04-08T06:10:02.729Z,5656
2017-04-08T06:11:02.724Z,6420
2017-04-08T06:12:02.712Z,7352
2017-04-08T06:13:02.713Z,7976
2017-04-08T06:14:02.952Z,7844
2017-04-08T06:15:02.696Z,9024
2017-04-08T06:16:02.686Z,13004
2017-04-08T06:17:02.686Z,16480
2017-04-08T06:18:02.679Z,13404
2017-04-08T06:19:02.921Z,10464
2017-04-08T06:20:02.665Z,8448
2017-04-08T06:21:02.653Z,7864
2017-04-08T06:22:02.654Z,8636
2017-04-08T06:23:02.643Z,9588
2017-04-08T06:24:02.942Z,8652
2017-04-08T06:25:02.328Z,8064
2017-04-08T06:26:02.319Z,8252
2017-04-08T06:27:02.619Z,7000
2017-04-08T06:28:02.610Z,6132
2017-04-08T06:29:02.857Z,6896
2017-04-08T06:30:02.608Z,7108
2017-04-08T06:31:02.595Z,5920
2017-04-08T06:32:02.616Z,4968
2017-04-08T06:33:02.299Z,4924
2017-04-08T06:34:02.882Z,4972
2017-04-08T06:35:02.574Z,6016
2017-04-08T06:36:02.568Z,6492
2017-04-08T06:37:02.561Z,6412
2017-04-08T06:38:02.551Z,6308
2017-04-08T06:39:02.899Z,7388
2017-04-08T06:40:02.550Z,7988
2017-04-08T06:41:02.538Z,9320
2017-04-08T06:42:02.543Z,10164
2017-04-08T06:43:02.527Z,10388
2017-04-08T06:44:02.770Z,10920
2017-04-08T06:45:02.515Z,12432
2017-04-08T06:46:02.513Z,13660
2017-04-08T06:47:02.502Z,10976
2017-04-08T06:48:02.499Z,8240
2017-04-08T06:49:02.744Z,10392
2017-04-08T06:50:02.489Z,10276
2017-04-08T06:51:02.478Z,10928
2017-04-08T06:52:02.477Z,8620
2017-04-08T06:53:02.474Z,9112
2017-04-08T06:54:02.727Z,10892
2017-04-08T06:55:02.464Z,10808
2017-04-08T06:56:02.454Z,8152
2017-04-08T06:57:02.453Z,8364
2017-04-08T06:58:02.456Z,10052
2017-04-08T06:59:02.739Z,9692
2017-04-08T07:00:02.443Z,8520
2017-04-08T07:01:02.427Z,8284
2017-04-08T07:02:02.137Z,6420
2017-04-08T07:03:02.428Z,5816
2017-04-08T07:04:02.768Z,6484
2017-04-08T07:05:02.426Z,6360
2017-04-08T07:06:02.108Z,7404
2017-04-08T07:07:02.404Z,5612
2017-04-08T07:08:02.398Z,6640
2017-04-08T07:09:02.697Z,9960
2017-04-08T07:10:02.087Z,7816
2017-04-08T07:11:02.381Z,5740
2017-04-08T07:12:02.373Z,5964
2017-04-08T07:13:02.365Z,6668
2017-04-08T07:14:02.609Z,6692
2017-04-08T07:15:02.356Z,6180
2017-04-08T07:16:02.350Z,7984
2017-04-08T07:17:02.041Z,8156
2017-04-08T07:18:02.343Z,7160
2017-04-08T07:19:02.586Z,8916
2017-04-08T07:20:02.328Z,9372
2017-04-08T07:21:02.355Z,9256
2017-04-08T07:22:02.319Z,8572
2017-04-08T07:23:02.315Z,7612
2017-04-08T07:24:02.560Z,7320
2017-04-08T07:25:02.309Z,7444
2017-04-08T07:26:01.707Z,7304
2017-04-08T07:27:02.294Z,7376
2017-04-08T07:28:02.287Z,8200
2017-04-08T07:29:02.593Z,10672
2017-04-08T07:30:01.973Z,10028
2017-04-08T07:31:02.272Z,8704
2017-04-08T07:32:02.271Z,8236
2017-04-08T07:33:02.267Z,9520
2017-04-08T07:34:02.606Z,12484
2017-04-08T07:35:02.256Z,16352
2017-04-08T07:36:02.247Z,16064
2017-04-08T07:37:02.240Z,19488
2017-04-08T07:38:02.233Z,10040
2017-04-08T07:39:02.532Z,9776
2017-04-08T07:40:02.231Z,11284
2017-04-08T07:41:01.919Z,17760
2017-04-08T07:42:02.215Z,48864
2017-04-08T07:43:02.225Z,26880
2017-04-08T07:44:02.468Z,52704
2017-04-08T07:45:02.204Z,68800
2017-04-08T07:46:02.204Z,30880
2017-04-08T07:47:02.194Z,18976
2017-04-08T07:48:01.889Z,19360
2017-04-08T07:49:02.488Z,15724
2017-04-08T07:50:02.189Z,14380
2017-04-08T07:51:02.181Z,18368
2017-04-08T07:52:02.181Z,20896
2017-04-08T07:53:02.179Z,24448
2017-04-08T07:54:02.436Z,14224
2017-04-08T07:55:02.174Z,17888
2017-04-08T07:56:02.166Z,24512
2017-04-08T07:57:02.165Z,45888
2017-04-08T07:58:02.171Z,26144
2017-04-08T07:59:01.857Z,15800
2017-04-08T08:00:02.160Z,18560
2017-04-08T08:01:02.163Z,20896
2017-04-08T08:02:02.162Z,19680
2017-04-08T08:03:02.156Z,18816
2017-04-08T08:04:02.148Z,16832
2017-04-08T08:05:02.149Z,16736
2017-04-08T08:06:02.143Z,16896
2017-04-08T08:07:02.147Z,17696
2017-04-08T08:08:02.143Z,19744
2017-04-08T08:09:01.842Z,19200
2017-04-08T08:10:01.836Z,16640
2017-04-08T08:11:02.133Z,15788
2017-04-08T08:12:02.128Z,16832
2017-04-08T08:13:02.134Z,18752
2017-04-08T08:14:02.126Z,22624
2017-04-08T08:15:02.122Z,21440
2017-04-08T08:16:02.125Z,15768
2017-04-08T08:17:02.119Z,14520
2017-04-08T08:18:01.814Z,15356
2017-04-08T08:19:01.810Z,17440
2017-04-08T08:20:02.117Z,17696
2017-04-08T08:21:02.119Z,12700
2017-04-08T08:22:02.109Z,10688
2017-04-08T08:23:02.122Z,10876
2017-04-08T08:24:02.110Z,12032
2017-04-08T08:25:02.109Z,13516
2017-04-08T08:26:02.099Z,15056
2017-04-08T08:27:02.101Z,13832
2017-04-08T08:28:02.102Z,15432
2017-04-08T08:29:02.096Z,19648
2017-04-08T08:30:02.096Z,22336
2017-04-08T08:31:02.090Z,18912
2017-04-08T08:32:02.084Z,14740
2017-04-08T08:33:01.779Z,13652
2017-04-08T08:34:02.084Z,14600
2017-04-08T08:35:02.081Z,14888
2017-04-08T08:36:01.769Z,15408
2017-04-08T08:37:02.073Z,15152
2017-04-08T08:38:02.082Z,15348
2017-04-08T08:39:02.071Z,16832
2017-04-08T08:40:02.068Z,20544
2017-04-08T08:41:02.068Z,23520
2017-04-08T08:42:01.757Z,25440
2017-04-08T08:43:02.057Z,22272
2017-04-08T08:44:02.055Z,24832
2017-04-08T08:45:02.056Z,28160
2017-04-08T08:46:02.056Z,25472
2017-04-08T08:47:02.052Z,23616
2017-04-08T08:48:02.048Z,22944
2017-04-08T08:49:02.048Z,24160
2017-04-08T08:50:02.039Z,25984
2017-04-08T08:51:02.040Z,26368
2017-04-08T08:52:01.732Z,24768
2017-04-08T08:53:02.034Z,21536
2017-04-08T08:54:01.736Z,21408
2017-04-08T08:55:02.030Z,24160
2017-04-08T08:56:02.030Z,21760
2017-04-08T08:57:02.029Z,17856
2017-04-08T08:58:02.027Z,20000
2017-04-08T08:59:02.023Z,20672
2017-04-08T09:00:01.763Z,16484
2017-04-08T09:01:02.060Z,14288
2017-04-08T09:02:02.023Z,13652
2017-04-08T09:03:02.022Z,13004
2017-04-08T09:04:02.022Z,13068
2017-04-08T09:05:02.019Z,13272
2017-04-08T09:06:02.018Z,13096
2017-04-08T09:07:02.014Z,15872
2017-04-08T09:08:02.035Z,19264
2017-04-08T09:09:02.013Z,21088
2017-04-08T09:10:02.020Z,20864
2017-04-08T09:11:02.044Z,22016
2017-04-08T09:12:02.008Z,21152
2017-04-08T09:13:02.005Z,18752
2017-04-08T09:14:02.003Z,19648
2017-04-08T09:15:02.002Z,19168
2017-04-08T09:16:01.998Z,19808
2017-04-08T09:17:02.001Z,22336
2017-04-08T09:18:01.995Z,23936
2017-04-08T09:19:01.997Z,23264
2017-04-08T09:20:01.688Z,19744
2017-04-08T09:21:02.010Z,18656
2017-04-08T09:22:01.987Z,17824
2017-04-08T09:23:01.984Z,15048
2017-04-08T09:24:01.980Z,12840
2017-04-08T09:25:01.981Z,15888
2017-04-08T09:26:01.979Z,19936
2017-04-08T09:27:01.978Z,17024
2017-04-08T09:28:01.977Z,14556
2017-04-08T09:29:01.976Z,15188
2017-04-08T09:30:01.977Z,17024
2017-04-08T09:31:01.973Z,17280
2017-04-08T09:32:01.973Z,18048
2017-04-08T09:33:01.970Z,15756
2017-04-08T09:34:01.978Z,16608
2017-04-08T09:35:01.974Z,18592
2017-04-08T09:36:01.966Z,20672
2017-04-08T09:37:01.968Z,21344
2017-04-08T09:38:01.965Z,21024
2017-04-08T09:39:01.956Z,18496
2017-04-08T09:40:01.961Z,16480
2017-04-08T09:41:01.958Z,16960
2017-04-08T09:42:01.954Z,19328
2017-04-08T09:43:01.989Z,20800
2017-04-08T09:44:01.954Z,20320
2017-04-08T09:45:01.949Z,19072
2017-04-08T09:46:01.944Z,19008
2017-04-08T09:47:01.950Z,21088
2017-04-08T09:48:01.947Z,21088
2017-04-08T09:49:01.942Z,19456
2017-04-08T09:50:01.940Z,19616
2017-04-08T09:51:01.636Z,20128
2017-04-08T09:52:01.937Z,20800
2017-04-08T09:53:01.975Z,20256
2017-04-08T09:54:01.935Z,21440
2017-04-08T09:55:01.935Z,20832
2017-04-08T09:56:01.937Z,21760
2017-04-08T09:57:01.623Z,21024
2017-04-08T09:58:01.929Z,20800
2017-04-08T09:59:01.928Z,19360
2017-04-08T10:00:01.926Z,16960
2017-04-08T10:01:01.928Z,14880
2017-04-08T10:02:01.622Z,14780
2017-04-08T10:03:01.918Z,15908
2017-04-08T10:04:01.620Z,16480
2017-04-08T10:05:02.173Z,15224
2017-04-08T10:06:01.955Z,14464
2017-04-08T10:07:01.616Z,13492
2017-04-08T10:08:01.915Z,14572
2017-04-08T10:09:01.952Z,15144
2017-04-08T10:10:02.211Z,14068
2017-04-08T10:11:01.907Z,15332
2017-04-08T10:12:01.909Z,19840
2017-04-08T10:13:01.908Z,21856
2017-04-08T10:14:01.905Z,22080
2017-04-08T10:15:02.204Z,22688
2017-04-08T10:16:01.904Z,22784
2017-04-08T10:17:01.904Z,20896
2017-04-08T10:18:01.900Z,19488
2017-04-08T10:19:01.903Z,17728
2017-04-08T10:20:02.157Z,14620
2017-04-08T10:21:01.897Z,13552
2017-04-08T10:22:01.899Z,14512
2017-04-08T10:23:01.899Z,15656
2017-04-08T10:24:01.903Z,16416
2017-04-08T10:25:02.252Z,19040
2017-04-08T10:26:01.895Z,22304
2017-04-08T10:27:01.892Z,22336
2017-04-08T10:28:01.902Z,22720
2017-04-08T10:29:01.893Z,20384
2017-04-08T10:30:01.840Z,18784
2017-04-08T10:31:01.891Z,17888
2017-04-08T10:32:01.892Z,18272
2017-04-08T10:33:01.891Z,18816
2017-04-08T10:34:01.885Z,19648
2017-04-08T10:35:02.139Z,21952
2017-04-08T10:36:01.886Z,23136
2017-04-08T10:37:01.892Z,22272
2017-04-08T10:38:01.885Z,20192
2017-04-08T10:39:01.888Z,18176
2017-04-08T10:40:01.831Z,17536
2017-04-08T10:41:01.884Z,16240
2017-04-08T10:42:01.884Z,15880
2017-04-08T10:43:01.882Z,17536
2017-04-08T10:44:01.885Z,19584
2017-04-08T10:45:02.183Z,20416
2017-04-08T10:46:01.889Z,18464
2017-04-08T10:47:01.881Z,16640
2017-04-08T10:48:01.879Z,16928
2017-04-08T10:49:01.928Z,19360
2017-04-08T10:50:02.132Z,20960
2017-04-08T10:51:01.892Z,21472
2017-04-08T10:52:01.877Z,21856
2017-04-08T10:53:01.889Z,21728
2017-04-08T10:54:01.878Z,20032
2017-04-08T10:55:02.127Z,20768
2017-04-08T10:56:01.877Z,22080
2017-04-08T10:57:01.877Z,20736
2017-04-08T10:58:01.880Z,20288
2017-04-08T10:59:01.877Z,19392
2017-04-08T11:00:02.126Z,17568
2017-04-08T11:01:01.879Z,17184
2017-04-08T11:02:01.876Z,18304
2017-04-08T11:03:01.880Z,18464
2017-04-08T11:04:01.877Z,17504
2017-04-08T11:05:02.186Z,16216
2017-04-08T11:06:01.882Z,16364
2017-04-08T11:07:01.878Z,18144
2017-04-08T11:08:01.571Z,20192
2017-04-08T11:09:01.874Z,21216
2017-04-08T11:10:02.130Z,21824
2017-04-08T11:11:01.877Z,21952
2017-04-08T11:12:01.908Z,21504
2017-04-08T11:13:01.881Z,21536
2017-04-08T11:14:01.876Z,22048
2017-04-08T11:15:01.826Z,22048
2017-04-08T11:16:01.877Z,19744
2017-04-08T11:17:01.584Z,17824
2017-04-08T11:18:01.879Z,17440
2017-04-08T11:19:01.879Z,18080
2017-04-08T11:20:02.132Z,17824
2017-04-08T11:21:01.891Z,16896
2017-04-08T11:22:01.879Z,16160
2017-04-08T11:23:01.882Z,14280
2017-04-08T11:24:01.886Z,12752
2017-04-08T11:25:02.129Z,11480
2017-04-08T11:26:01.882Z,9916
2017-04-08T11:27:01.880Z,9568
2017-04-08T11:28:01.883Z,9092
2017-04-08T11:29:01.879Z,8512
2017-04-08T11:30:02.139Z,8912
2017-04-08T11:31:01.880Z,10976
2017-04-08T11:32:01.882Z,13548
2017-04-08T11:33:01.878Z,15476
2017-04-08T11:34:01.876Z,15592
2017-04-08T11:35:02.522Z,15824
2017-04-08T11:36:01.873Z,17312
2017-04-08T11:37:01.883Z,18592
2017-04-08T11:38:01.873Z,18464
2017-04-08T11:39:01.891Z,17344
2017-04-08T11:40:02.121Z,16704
2017-04-08T11:41:01.873Z,17952
2017-04-08T11:42:01.871Z,18624
2017-04-08T11:43:01.869Z,17952
2017-04-08T11:44:01.870Z,17888
2017-04-08T11:45:02.217Z,17472
2017-04-08T11:46:01.866Z,15308
2017-04-08T11:47:01.863Z,15144
2017-04-08T11:48:01.865Z,15120
2017-04-08T11:49:01.868Z,13644
2017-04-08T11:50:02.113Z,10964
2017-04-08T11:51:01.864Z,9640
2017-04-08T11:52:01.863Z,9044
2017-04-08T11:53:01.870Z,10224
2017-04-08T11:54:01.867Z,10880
2017-04-08T11:55:02.161Z,13172
2017-04-08T11:56:01.860Z,15844
2017-04-08T11:57:01.860Z,14584
2017-04-08T11:58:01.861Z,11036
2017-04-08T11:59:01.861Z,9768
2017-04-08T12:00:02.179Z,9360
2017-04-08T12:01:01.859Z,9828
2017-04-08T12:02:01.861Z,10692
2017-04-08T12:03:01.857Z,10948
2017-04-08T12:04:01.859Z,10384
2017-04-08T12:05:02.209Z,9856
2017-04-08T12:06:01.857Z,9912
2017-04-08T12:07:01.861Z,11656
2017-04-08T12:08:01.902Z,13276
2017-04-08T12:09:01.855Z,13576
2017-04-08T12:10:02.100Z,12580
2017-04-08T12:11:02.056Z,10380
2017-04-08T12:12:01.852Z,8844
2017-04-08T12:13:01.845Z,8916
2017-04-08T12:14:01.849Z,9748
2017-04-08T12:15:02.144Z,12024
2017-04-08T12:16:01.844Z,14268
2017-04-08T12:17:01.841Z,14364
2017-04-08T12:18:01.839Z,11640
2017-04-08T12:19:01.532Z,9984
2017-04-08T12:20:02.087Z,10204
2017-04-08T12:21:01.836Z,10388
2017-04-08T12:22:01.831Z,10244
2017-04-08T12:23:01.868Z,10896
2017-04-08T12:24:01.831Z,11728
2017-04-08T12:25:01.837Z,12448
2017-04-08T12:26:01.826Z,14328
2017-04-08T12:27:01.828Z,14680
2017-04-08T12:28:01.821Z,13644
2017-04-08T12:29:01.819Z,13268
2017-04-08T12:30:02.119Z,13688
2017-04-08T12:31:01.814Z,14568
2017-04-08T12:32:01.816Z,14600
2017-04-08T12:33:01.809Z,13440
2017-04-08T12:34:01.511Z,13112
2017-04-08T12:35:01.762Z,14048
2017-04-08T12:36:01.808Z,16416
2017-04-08T12:37:01.200Z,17824
2017-04-08T12:38:01.811Z,16384
2017-04-08T12:39:01.803Z,12932
2017-04-08T12:40:02.103Z,10872
2017-04-08T12:41:01.800Z,9824
2017-04-08T12:42:02.139Z,9364
2017-04-08T12:43:01.792Z,8720
2017-04-08T12:44:01.791Z,8240
2017-04-08T12:45:02.038Z,7868
2017-04-08T12:46:01.787Z,7484
2017-04-08T12:47:01.796Z,7116
2017-04-08T12:48:01.482Z,7100
2017-04-08T12:49:01.786Z,7016
2017-04-08T12:50:02.030Z,6756
2017-04-08T12:51:01.782Z,6696
2017-04-08T12:52:01.776Z,6720
2017-04-08T12:53:01.775Z,6624
2017-04-08T12:54:01.774Z,6580
2017-04-08T12:55:02.123Z,6524
2017-04-08T12:56:01.769Z,6312
2017-04-08T12:57:01.767Z,6492
2017-04-08T12:58:01.769Z,6524
2017-04-08T12:59:01.764Z,6268
2017-04-08T13:00:01.762Z,6200
2017-04-08T13:01:01.760Z,6384
2017-04-08T13:02:01.766Z,6828
2017-04-08T13:03:01.754Z,7676
2017-04-08T13:04:01.766Z,7972
2017-04-08T13:05:02.049Z,7564
2017-04-08T13:06:01.747Z,7036
2017-04-08T13:07:01.743Z,7032
2017-04-08T13:08:01.740Z,6728
2017-04-08T13:09:01.741Z,7212
2017-04-08T13:10:01.679Z,8412
2017-04-08T13:11:01.734Z,10060
2017-04-08T13:12:01.729Z,10908
2017-04-08T13:13:01.427Z,10932
2017-04-08T13:14:01.724Z,10912
2017-04-08T13:15:02.079Z,11760
2017-04-08T13:16:01.723Z,12756
2017-04-08T13:17:01.419Z,13232
2017-04-08T13:18:01.712Z,13036
2017-04-08T13:19:01.718Z,12316
2017-04-08T13:20:01.958Z,11364
2017-04-08T13:21:01.738Z,11368
2017-04-08T13:22:01.705Z,12444
2017-04-08T13:23:01.706Z,13080
2017-04-08T13:24:01.701Z,12736
2017-04-08T13:25:01.945Z,11536
2017-04-08T13:26:01.696Z,10412
2017-04-08T13:27:01.692Z,9484
2017-04-08T13:28:01.697Z,9072
2017-04-08T13:29:01.692Z,9312
2017-04-08T13:30:01.955Z,9944
2017-04-08T13:31:01.691Z,10208
2017-04-08T13:32:01.678Z,10184
2017-04-08T13:33:01.675Z,9656
2017-04-08T13:34:01.370Z,8748